sensor_id;sensor_type;location;lat;lon;timestamp;P1;durP1;ratioP1;P2;durP2;ratioP2
3549;SDS011;45572;48.804;8.330;2022-11-25T00:01:14;6.88;;;2.20;;
3549;SDS011;45572;48.804;8.330;2022-11-25T00:03:44;4.57;;;2.63;;
3549;SDS011;45572;48.804;8.330;2022-11-25T00:06:13;4.60;;;3.05;;
3549;SDS011;45572;48.804;8.330;2022-11-25T00:08:43;5.45;;;2.80;;
3549;SDS011;45572;48.804;8.330;2022-11-25T00:11:12;6.50;;;2.78;;
3549;SDS011;45572;48.804;8.330;2022-11-25T00:13:43;4.05;;;2.90;;
3549;SDS011;45572;48.804;8.330;2022-11-25T00:16:12;12.23;;;4.25;;
3549;SDS011;45572;48.804;8.330;2022-11-25T00:18:42;7.57;;;3.78;;
3549;SDS011;45572;48.804;8.330;2022-11-25T00:21:12;8.48;;;3.35;;
3549;SDS011;45572;48.804;8.330;2022-11-25T00:23:40;5.75;;;2.97;;
3549;SDS011;45572;48.804;8.330;2022-11-25T00:26:09;9.45;;;3.05;;
3549;SDS011;45572;48.804;8.330;2022-11-25T00:28:38;4.50;;;1.98;;
3549;SDS011;45572;48.804;8.330;2022-11-25T00:31:10;5.32;;;2.67;;
3549;SDS011;45572;48.804;8.330;2022-11-25T00:33:39;3.97;;;2.00;;
3549;SDS011;45572;48.804;8.330;2022-11-25T00:36:11;7.38;;;3.70;;
3549;SDS011;45572;48.804;8.330;2022-11-25T00:38:42;5.85;;;3.35;;
3549;SDS011;45572;48.804;8.330;2022-11-25T00:41:10;8.82;;;3.45;;
3549;SDS011;45572;48.804;8.330;2022-11-25T00:43:52;7.20;;;3.75;;
3549;SDS011;45572;48.804;8.330;2022-11-25T00:46:35;11.32;;;4.22;;
3549;SDS011;45572;48.804;8.330;2022-11-25T00:49:05;8.15;;;4.15;;
3549;SDS011;45572;48.804;8.330;2022-11-25T00:51:33;8.57;;;3.90;;
3549;SDS011;45572;48.804;8.330;2022-11-25T00:54:00;6.28;;;2.78;;
3549;SDS011;45572;48.804;8.330;2022-11-25T00:56:28;8.85;;;2.88;;
3549;SDS011;45572;48.804;8.330;2022-11-25T00:58:56;20.42;;;3.42;;
3549;SDS011;45572;48.804;8.330;2022-11-25T01:01:24;10.15;;;4.28;;
3549;SDS011;45572;48.804;8.330;2022-11-25T01:03:53;12.93;;;4.65;;
3549;SDS011;45572;48.804;8.330;2022-11-25T01:06:21;8.93;;;4.07;;
3549;SDS011;45572;48.804;8.330;2022-11-25T01:08:49;17.13;;;4.38;;
3549;SDS011;45572;48.804;8.330;2022-11-25T01:11:18;9.52;;;5.00;;
3549;SDS011;45572;48.804;8.330;2022-11-25T01:13:47;8.73;;;3.08;;
3549;SDS011;45572;48.804;8.330;2022-11-25T01:16:15;8.30;;;3.70;;
3549;SDS011;45572;48.804;8.330;2022-11-25T01:18:45;6.55;;;3.10;;
3549;SDS011;45572;48.804;8.330;2022-11-25T01:21:15;8.80;;;3.08;;
3549;SDS011;45572;48.804;8.330;2022-11-25T01:23:44;7.60;;;4.25;;
3549;SDS011;45572;48.804;8.330;2022-11-25T01:26:14;11.55;;;3.60;;
3549;SDS011;45572;48.804;8.330;2022-11-25T01:28:43;9.82;;;4.68;;
3549;SDS011;45572;48.804;8.330;2022-11-25T01:31:12;8.35;;;4.95;;
3549;SDS011;45572;48.804;8.330;2022-11-25T01:33:41;12.15;;;5.53;;
3549;SDS011;45572;48.804;8.330;2022-11-25T01:36:10;8.73;;;4.47;;
3549;SDS011;45572;48.804;8.330;2022-11-25T01:38:42;7.95;;;3.42;;
3549;SDS011;45572;48.804;8.330;2022-11-25T01:41:14;9.50;;;4.57;;
3549;SDS011;45572;48.804;8.330;2022-11-25T01:43:42;7.05;;;4.15;;
3549;SDS011;45572;48.804;8.330;2022-11-25T01:46:14;5.97;;;3.60;;
3549;SDS011;45572;48.804;8.330;2022-11-25T01:48:48;8.15;;;3.70;;
3549;SDS011;45572;48.804;8.330;2022-11-25T01:51:20;4.68;;;2.17;;
3549;SDS011;45572;48.804;8.330;2022-11-25T01:53:53;7.50;;;3.30;;
3549;SDS011;45572;48.804;8.330;2022-11-25T01:56:25;7.22;;;2.75;;
3549;SDS011;45572;48.804;8.330;2022-11-25T01:58:56;8.73;;;3.47;;
3549;SDS011;45572;48.804;8.330;2022-11-25T02:01:25;11.02;;;4.55;;
3549;SDS011;45572;48.804;8.330;2022-11-25T02:03:53;10.10;;;5.00;;
3549;SDS011;45572;48.804;8.330;2022-11-25T02:06:24;11.77;;;5.40;;
3549;SDS011;45572;48.804;8.330;2022-11-25T02:08:57;10.95;;;4.90;;
3549;SDS011;45572;48.804;8.330;2022-11-25T02:11:31;7.55;;;4.25;;
3549;SDS011;45572;48.804;8.330;2022-11-25T02:14:03;10.27;;;4.32;;
3549;SDS011;45572;48.804;8.330;2022-11-25T02:16:33;12.45;;;4.13;;
3549;SDS011;45572;48.804;8.330;2022-11-25T02:19:01;9.45;;;3.92;;
3549;SDS011;45572;48.804;8.330;2022-11-25T02:21:30;9.02;;;3.55;;
3549;SDS011;45572;48.804;8.330;2022-11-25T02:24:07;12.18;;;3.30;;
3549;SDS011;45572;48.804;8.330;2022-11-25T02:26:46;6.45;;;3.15;;
3549;SDS011;45572;48.804;8.330;2022-11-25T02:29:14;6.07;;;3.05;;
3549;SDS011;45572;48.804;8.330;2022-11-25T02:31:42;5.35;;;3.33;;
3549;SDS011;45572;48.804;8.330;2022-11-25T02:34:11;7.10;;;4.03;;
3549;SDS011;45572;48.804;8.330;2022-11-25T02:36:39;9.10;;;3.85;;
3549;SDS011;45572;48.804;8.330;2022-11-25T02:39:06;6.22;;;3.55;;
3549;SDS011;45572;48.804;8.330;2022-11-25T02:41:35;10.25;;;2.35;;
3549;SDS011;45572;48.804;8.330;2022-11-25T02:44:08;5.65;;;2.30;;
3549;SDS011;45572;48.804;8.330;2022-11-25T02:46:37;6.40;;;2.40;;
3549;SDS011;45572;48.804;8.330;2022-11-25T02:49:05;7.13;;;2.72;;
3549;SDS011;45572;48.804;8.330;2022-11-25T02:51:37;5.88;;;3.00;;
3549;SDS011;45572;48.804;8.330;2022-11-25T02:54:07;4.25;;;3.08;;
3549;SDS011;45572;48.804;8.330;2022-11-25T02:56:35;5.68;;;2.05;;
3549;SDS011;45572;48.804;8.330;2022-11-25T02:59:08;4.03;;;1.73;;
3549;SDS011;45572;48.804;8.330;2022-11-25T03:01:37;1.92;;;1.40;;
3549;SDS011;45572;48.804;8.330;2022-11-25T03:04:07;5.95;;;3.05;;
3549;SDS011;45572;48.804;8.330;2022-11-25T03:06:35;3.97;;;1.67;;
3549;SDS011;45572;48.804;8.330;2022-11-25T03:09:05;9.00;;;2.58;;
3549;SDS011;45572;48.804;8.330;2022-11-25T03:11:36;3.85;;;1.65;;
3549;SDS011;45572;48.804;8.330;2022-11-25T03:14:21;6.45;;;1.58;;
3549;SDS011;45572;48.804;8.330;2022-11-25T03:16:48;1.55;;;1.15;;
3549;SDS011;45572;48.804;8.330;2022-11-25T03:19:16;3.20;;;1.85;;
3549;SDS011;45572;48.804;8.330;2022-11-25T03:21:44;2.95;;;1.58;;
3549;SDS011;45572;48.804;8.330;2022-11-25T03:24:12;6.05;;;1.17;;
3549;SDS011;45572;48.804;8.330;2022-11-25T03:26:39;2.88;;;1.45;;
3549;SDS011;45572;48.804;8.330;2022-11-25T03:29:07;6.45;;;1.60;;
3549;SDS011;45572;48.804;8.330;2022-11-25T03:31:37;4.10;;;1.20;;
3549;SDS011;45572;48.804;8.330;2022-11-25T03:34:09;2.25;;;0.95;;
3549;SDS011;45572;48.804;8.330;2022-11-25T03:36:36;1.45;;;1.10;;
3549;SDS011;45572;48.804;8.330;2022-11-25T03:39:04;3.90;;;1.65;;
3549;SDS011;45572;48.804;8.330;2022-11-25T03:41:34;2.55;;;1.00;;
3549;SDS011;45572;48.804;8.330;2022-11-25T03:44:02;3.72;;;1.50;;
3549;SDS011;45572;48.804;8.330;2022-11-25T03:46:31;4.22;;;1.55;;
3549;SDS011;45572;48.804;8.330;2022-11-25T03:49:03;9.43;;;2.03;;
3549;SDS011;45572;48.804;8.330;2022-11-25T03:51:31;4.93;;;1.85;;
3549;SDS011;45572;48.804;8.330;2022-11-25T03:53:58;5.43;;;2.28;;
3549;SDS011;45572;48.804;8.330;2022-11-25T03:56:29;3.15;;;2.30;;
3549;SDS011;45572;48.804;8.330;2022-11-25T03:58:57;6.40;;;1.70;;
3549;SDS011;45572;48.804;8.330;2022-11-25T04:01:24;4.65;;;2.25;;
3549;SDS011;45572;48.804;8.330;2022-11-25T04:03:52;4.70;;;2.60;;
3549;SDS011;45572;48.804;8.330;2022-11-25T04:06:22;6.43;;;2.65;;
3549;SDS011;45572;48.804;8.330;2022-11-25T04:08:51;10.35;;;2.97;;
3549;SDS011;45572;48.804;8.330;2022-11-25T04:11:20;8.93;;;3.10;;
3549;SDS011;45572;48.804;8.330;2022-11-25T04:14:09;5.53;;;2.55;;
3549;SDS011;45572;48.804;8.330;2022-11-25T04:16:36;3.25;;;2.08;;
3549;SDS011;45572;48.804;8.330;2022-11-25T04:19:04;3.60;;;2.25;;
3549;SDS011;45572;48.804;8.330;2022-11-25T04:21:33;7.22;;;3.17;;
3549;SDS011;45572;48.804;8.330;2022-11-25T04:24:01;4.13;;;2.45;;
3549;SDS011;45572;48.804;8.330;2022-11-25T04:26:29;4.65;;;2.60;;
3549;SDS011;45572;48.804;8.330;2022-11-25T04:28:57;5.70;;;3.03;;
3549;SDS011;45572;48.804;8.330;2022-11-25T04:31:26;5.03;;;2.10;;
3549;SDS011;45572;48.804;8.330;2022-11-25T04:33:54;7.30;;;2.65;;
3549;SDS011;45572;48.804;8.330;2022-11-25T04:36:22;4.63;;;2.35;;
3549;SDS011;45572;48.804;8.330;2022-11-25T04:38:52;7.38;;;2.78;;
3549;SDS011;45572;48.804;8.330;2022-11-25T04:41:20;5.78;;;2.35;;
3549;SDS011;45572;48.804;8.330;2022-11-25T04:43:48;5.00;;;3.75;;
3549;SDS011;45572;48.804;8.330;2022-11-25T04:46:17;9.60;;;2.25;;
3549;SDS011;45572;48.804;8.330;2022-11-25T04:48:49;10.70;;;2.60;;
3549;SDS011;45572;48.804;8.330;2022-11-25T04:51:20;8.05;;;2.60;;
3549;SDS011;45572;48.804;8.330;2022-11-25T04:53:53;4.03;;;2.15;;
3549;SDS011;45572;48.804;8.330;2022-11-25T04:56:22;3.30;;;1.60;;
3549;SDS011;45572;48.804;8.330;2022-11-25T04:58:52;6.22;;;1.45;;
3549;SDS011;45572;48.804;8.330;2022-11-25T05:01:38;2.08;;;1.45;;
3549;SDS011;45572;48.804;8.330;2022-11-25T05:04:21;4.30;;;1.63;;
3549;SDS011;45572;48.804;8.330;2022-11-25T05:06:48;2.25;;;1.13;;
3549;SDS011;45572;48.804;8.330;2022-11-25T05:09:19;3.58;;;1.58;;
3549;SDS011;45572;48.804;8.330;2022-11-25T05:11:55;7.22;;;1.02;;
3549;SDS011;45572;48.804;8.330;2022-11-25T05:14:24;4.00;;;1.27;;
3549;SDS011;45572;48.804;8.330;2022-11-25T05:16:52;2.65;;;1.30;;
3549;SDS011;45572;48.804;8.330;2022-11-25T05:19:19;4.57;;;1.63;;
3549;SDS011;45572;48.804;8.330;2022-11-25T05:21:48;3.15;;;1.17;;
3549;SDS011;45572;48.804;8.330;2022-11-25T05:24:16;3.30;;;1.40;;
3549;SDS011;45572;48.804;8.330;2022-11-25T05:26:48;4.20;;;1.52;;
3549;SDS011;45572;48.804;8.330;2022-11-25T05:29:17;5.93;;;1.63;;
3549;SDS011;45572;48.804;8.330;2022-11-25T05:31:46;3.13;;;2.08;;
3549;SDS011;45572;48.804;8.330;2022-11-25T05:34:14;4.93;;;1.88;;
3549;SDS011;45572;48.804;8.330;2022-11-25T05:36:43;3.05;;;1.73;;
3549;SDS011;45572;48.804;8.330;2022-11-25T05:39:11;3.28;;;1.63;;
3549;SDS011;45572;48.804;8.330;2022-11-25T05:42:00;3.00;;;1.52;;
3549;SDS011;45572;48.804;8.330;2022-11-25T05:44:29;7.40;;;1.90;;
3549;SDS011;45572;48.804;8.330;2022-11-25T05:46:57;2.83;;;1.75;;
3549;SDS011;45572;48.804;8.330;2022-11-25T05:49:24;7.47;;;1.80;;
3549;SDS011;45572;48.804;8.330;2022-11-25T05:51:52;9.55;;;2.20;;
3549;SDS011;45572;48.804;8.330;2022-11-25T05:54:23;4.82;;;2.15;;
3549;SDS011;45572;48.804;8.330;2022-11-25T05:56:51;9.77;;;2.72;;
3549;SDS011;45572;48.804;8.330;2022-11-25T05:59:30;5.22;;;1.92;;
3549;SDS011;45572;48.804;8.330;2022-11-25T06:02:06;3.25;;;1.23;;
3549;SDS011;45572;48.804;8.330;2022-11-25T06:04:34;2.53;;;2.05;;
3549;SDS011;45572;48.804;8.330;2022-11-25T06:07:02;3.78;;;2.17;;
3549;SDS011;45572;48.804;8.330;2022-11-25T06:09:31;3.30;;;2.00;;
3549;SDS011;45572;48.804;8.330;2022-11-25T06:11:59;7.30;;;2.40;;
3549;SDS011;45572;48.804;8.330;2022-11-25T06:14:31;7.60;;;2.53;;
3549;SDS011;45572;48.804;8.330;2022-11-25T06:17:00;6.18;;;2.28;;
3549;SDS011;45572;48.804;8.330;2022-11-25T06:19:33;3.53;;;2.50;;
3549;SDS011;45572;48.804;8.330;2022-11-25T06:22:01;5.03;;;2.28;;
3549;SDS011;45572;48.804;8.330;2022-11-25T06:24:29;6.95;;;2.65;;
3549;SDS011;45572;48.804;8.330;2022-11-25T06:27:02;4.55;;;2.50;;
3549;SDS011;45572;48.804;8.330;2022-11-25T06:29:33;5.47;;;2.45;;
3549;SDS011;45572;48.804;8.330;2022-11-25T06:32:01;5.65;;;2.55;;
3549;SDS011;45572;48.804;8.330;2022-11-25T06:34:49;4.43;;;1.83;;
3549;SDS011;45572;48.804;8.330;2022-11-25T06:37:27;4.70;;;2.35;;
3549;SDS011;45572;48.804;8.330;2022-11-25T06:39:55;10.38;;;2.90;;
3549;SDS011;45572;48.804;8.330;2022-11-25T06:42:23;5.63;;;2.90;;
3549;SDS011;45572;48.804;8.330;2022-11-25T06:44:52;6.78;;;2.90;;
3549;SDS011;45572;48.804;8.330;2022-11-25T06:47:20;11.38;;;4.28;;
3549;SDS011;45572;48.804;8.330;2022-11-25T06:49:48;3.53;;;2.80;;
3549;SDS011;45572;48.804;8.330;2022-11-25T06:52:15;3.33;;;2.15;;
3549;SDS011;45572;48.804;8.330;2022-11-25T06:54:43;6.00;;;3.10;;
3549;SDS011;45572;48.804;8.330;2022-11-25T06:57:11;5.78;;;4.10;;
3549;SDS011;45572;48.804;8.330;2022-11-25T06:59:44;11.13;;;5.28;;
3549;SDS011;45572;48.804;8.330;2022-11-25T07:02:13;9.43;;;4.85;;
3549;SDS011;45572;48.804;8.330;2022-11-25T07:04:41;7.55;;;5.15;;
3549;SDS011;45572;48.804;8.330;2022-11-25T07:07:09;16.05;;;5.82;;
3549;SDS011;45572;48.804;8.330;2022-11-25T07:09:37;19.25;;;5.78;;
3549;SDS011;45572;48.804;8.330;2022-11-25T07:12:07;8.50;;;5.78;;
3549;SDS011;45572;48.804;8.330;2022-11-25T07:14:34;10.70;;;6.03;;
3549;SDS011;45572;48.804;8.330;2022-11-25T07:17:03;9.73;;;4.90;;
3549;SDS011;45572;48.804;8.330;2022-11-25T07:19:38;14.65;;;5.22;;
3549;SDS011;45572;48.804;8.330;2022-11-25T07:22:06;10.13;;;5.65;;
3549;SDS011;45572;48.804;8.330;2022-11-25T07:24:34;13.68;;;6.35;;
3549;SDS011;45572;48.804;8.330;2022-11-25T07:27:02;9.95;;;5.30;;
3549;SDS011;45572;48.804;8.330;2022-11-25T07:29:31;10.05;;;4.88;;
3549;SDS011;45572;48.804;8.330;2022-11-25T07:32:21;10.77;;;3.90;;
3549;SDS011;45572;48.804;8.330;2022-11-25T07:34:50;4.82;;;3.30;;
3549;SDS011;45572;48.804;8.330;2022-11-25T07:37:17;5.35;;;2.85;;
3549;SDS011;45572;48.804;8.330;2022-11-25T07:39:45;9.18;;;1.83;;
3549;SDS011;45572;48.804;8.330;2022-11-25T07:42:13;3.58;;;1.70;;
3549;SDS011;45572;48.804;8.330;2022-11-25T07:44:41;7.35;;;2.20;;
3549;SDS011;45572;48.804;8.330;2022-11-25T07:47:28;9.18;;;2.30;;
3549;SDS011;45572;48.804;8.330;2022-11-25T07:50:00;6.28;;;2.75;;
3549;SDS011;45572;48.804;8.330;2022-11-25T07:52:29;3.58;;;1.98;;
3549;SDS011;45572;48.804;8.330;2022-11-25T07:54:56;4.07;;;1.90;;
3549;SDS011;45572;48.804;8.330;2022-11-25T07:57:24;2.92;;;1.42;;
3549;SDS011;45572;48.804;8.330;2022-11-25T07:59:52;3.63;;;2.03;;
3549;SDS011;45572;48.804;8.330;2022-11-25T08:02:20;6.85;;;2.08;;
3549;SDS011;45572;48.804;8.330;2022-11-25T08:04:48;7.88;;;1.70;;
3549;SDS011;45572;48.804;8.330;2022-11-25T08:07:20;1.95;;;1.35;;
3549;SDS011;45572;48.804;8.330;2022-11-25T08:09:48;4.20;;;2.00;;
3549;SDS011;45572;48.804;8.330;2022-11-25T08:12:16;3.15;;;1.95;;
3549;SDS011;45572;48.804;8.330;2022-11-25T08:14:44;6.53;;;2.38;;
3549;SDS011;45572;48.804;8.330;2022-11-25T08:17:12;6.32;;;3.42;;
3549;SDS011;45572;48.804;8.330;2022-11-25T08:19:40;8.05;;;4.28;;
3549;SDS011;45572;48.804;8.330;2022-11-25T08:22:09;5.70;;;3.35;;
3549;SDS011;45572;48.804;8.330;2022-11-25T08:24:38;5.40;;;3.28;;
3549;SDS011;45572;48.804;8.330;2022-11-25T08:27:06;3.75;;;2.20;;
3549;SDS011;45572;48.804;8.330;2022-11-25T08:29:33;6.40;;;2.10;;
3549;SDS011;45572;48.804;8.330;2022-11-25T08:32:02;5.63;;;2.58;;
3549;SDS011;45572;48.804;8.330;2022-11-25T08:34:36;9.32;;;3.95;;
3549;SDS011;45572;48.804;8.330;2022-11-25T08:37:06;4.15;;;2.70;;
3549;SDS011;45572;48.804;8.330;2022-11-25T08:39:34;8.02;;;3.58;;
3549;SDS011;45572;48.804;8.330;2022-11-25T08:42:19;10.40;;;3.08;;
3549;SDS011;45572;48.804;8.330;2022-11-25T08:44:50;9.93;;;5.80;;
3549;SDS011;45572;48.804;8.330;2022-11-25T08:47:18;11.43;;;6.35;;
3549;SDS011;45572;48.804;8.330;2022-11-25T08:49:48;15.20;;;10.07;;
3549;SDS011;45572;48.804;8.330;2022-11-25T08:52:16;20.92;;;11.85;;
3549;SDS011;45572;48.804;8.330;2022-11-25T08:54:44;18.80;;;11.90;;
3549;SDS011;45572;48.804;8.330;2022-11-25T08:57:13;14.85;;;9.85;;
3549;SDS011;45572;48.804;8.330;2022-11-25T08:59:42;17.10;;;10.80;;
3549;SDS011;45572;48.804;8.330;2022-11-25T09:02:11;18.52;;;9.60;;
3549;SDS011;45572;48.804;8.330;2022-11-25T09:04:42;16.45;;;9.07;;
3549;SDS011;45572;48.804;8.330;2022-11-25T09:07:10;17.83;;;8.30;;
3549;SDS011;45572;48.804;8.330;2022-11-25T09:09:38;11.98;;;8.02;;
3549;SDS011;45572;48.804;8.330;2022-11-25T09:12:06;13.05;;;7.93;;
3549;SDS011;45572;48.804;8.330;2022-11-25T09:14:37;17.80;;;8.63;;
3549;SDS011;45572;48.804;8.330;2022-11-25T09:17:08;13.23;;;8.10;;
3549;SDS011;45572;48.804;8.330;2022-11-25T09:19:36;14.70;;;8.20;;
3549;SDS011;45572;48.804;8.330;2022-11-25T09:22:04;15.80;;;7.45;;
3549;SDS011;45572;48.804;8.330;2022-11-25T09:24:33;14.38;;;7.50;;
3549;SDS011;45572;48.804;8.330;2022-11-25T09:27:01;10.05;;;5.78;;
3549;SDS011;45572;48.804;8.330;2022-11-25T09:29:29;4.75;;;3.30;;
3549;SDS011;45572;48.804;8.330;2022-11-25T09:31:57;12.95;;;4.10;;
3549;SDS011;45572;48.804;8.330;2022-11-25T09:34:26;8.65;;;3.90;;
3549;SDS011;45572;48.804;8.330;2022-11-25T09:36:54;5.13;;;3.78;;
3549;SDS011;45572;48.804;8.330;2022-11-25T09:39:21;7.97;;;4.30;;
3549;SDS011;45572;48.804;8.330;2022-11-25T09:41:56;7.05;;;4.10;;
3549;SDS011;45572;48.804;8.330;2022-11-25T09:44:56;6.47;;;4.28;;
3549;SDS011;45572;48.804;8.330;2022-11-25T09:47:48;7.47;;;4.00;;
3549;SDS011;45572;48.804;8.330;2022-11-25T09:50:29;8.65;;;4.40;;
3549;SDS011;45572;48.804;8.330;2022-11-25T09:53:09;7.72;;;4.45;;
3549;SDS011;45572;48.804;8.330;2022-11-25T09:55:52;6.13;;;4.35;;
3549;SDS011;45572;48.804;8.330;2022-11-25T09:58:29;6.00;;;3.75;;
3549;SDS011;45572;48.804;8.330;2022-11-25T10:01:00;7.97;;;4.50;;
3549;SDS011;45572;48.804;8.330;2022-11-25T10:03:33;4.32;;;2.85;;
3549;SDS011;45572;48.804;8.330;2022-11-25T10:06:09;6.15;;;3.30;;
3549;SDS011;45572;48.804;8.330;2022-11-25T10:08:42;5.35;;;3.20;;
3549;SDS011;45572;48.804;8.330;2022-11-25T10:11:14;6.68;;;3.60;;
3549;SDS011;45572;48.804;8.330;2022-11-25T10:13:49;7.25;;;3.55;;
3549;SDS011;45572;48.804;8.330;2022-11-25T10:16:27;5.30;;;4.60;;
3549;SDS011;45572;48.804;8.330;2022-11-25T10:19:00;8.35;;;3.05;;
3549;SDS011;45572;48.804;8.330;2022-11-25T10:21:33;6.03;;;3.20;;
3549;SDS011;45572;48.804;8.330;2022-11-25T10:24:01;6.28;;;2.72;;
3549;SDS011;45572;48.804;8.330;2022-11-25T10:26:36;7.22;;;3.50;;
3549;SDS011;45572;48.804;8.330;2022-11-25T10:29:18;7.57;;;3.88;;
3549;SDS011;45572;48.804;8.330;2022-11-25T10:31:49;5.28;;;3.50;;
3549;SDS011;45572;48.804;8.330;2022-11-25T10:34:22;7.50;;;3.33;;
3549;SDS011;45572;48.804;8.330;2022-11-25T10:36:56;7.88;;;3.30;;
3549;SDS011;45572;48.804;8.330;2022-11-25T10:39:27;9.20;;;3.97;;
3549;SDS011;45572;48.804;8.330;2022-11-25T10:41:59;11.60;;;3.25;;
3549;SDS011;45572;48.804;8.330;2022-11-25T10:44:32;3.90;;;3.25;;
3549;SDS011;45572;48.804;8.330;2022-11-25T10:47:06;6.45;;;3.35;;
3549;SDS011;45572;48.804;8.330;2022-11-25T10:49:49;8.07;;;4.43;;
3549;SDS011;45572;48.804;8.330;2022-11-25T10:52:28;12.15;;;5.22;;
3549;SDS011;45572;48.804;8.330;2022-11-25T10:55:06;5.93;;;5.22;;
3549;SDS011;45572;48.804;8.330;2022-11-25T10:57:36;6.65;;;4.88;;
3549;SDS011;45572;48.804;8.330;2022-11-25T11:00:04;12.45;;;5.30;;
3549;SDS011;45572;48.804;8.330;2022-11-25T11:02:42;15.18;;;5.70;;
3549;SDS011;45572;48.804;8.330;2022-11-25T11:05:15;12.98;;;6.75;;
3549;SDS011;45572;48.804;8.330;2022-11-25T11:08:05;10.10;;;6.55;;
3549;SDS011;45572;48.804;8.330;2022-11-25T11:10:36;13.93;;;7.22;;
3549;SDS011;45572;48.804;8.330;2022-11-25T11:13:04;11.15;;;7.10;;
3549;SDS011;45572;48.804;8.330;2022-11-25T11:15:45;15.93;;;8.35;;
3549;SDS011;45572;48.804;8.330;2022-11-25T11:18:19;13.10;;;7.75;;
3549;SDS011;45572;48.804;8.330;2022-11-25T11:20:50;20.77;;;9.43;;
3549;SDS011;45572;48.804;8.330;2022-11-25T11:23:21;15.27;;;9.40;;
3549;SDS011;45572;48.804;8.330;2022-11-25T11:25:53;24.13;;;10.27;;
3549;SDS011;45572;48.804;8.330;2022-11-25T11:28:27;16.17;;;8.77;;
3549;SDS011;45572;48.804;8.330;2022-11-25T11:31:04;9.68;;;6.60;;
3549;SDS011;45572;48.804;8.330;2022-11-25T11:33:35;13.13;;;6.80;;
3549;SDS011;45572;48.804;8.330;2022-11-25T11:36:15;13.55;;;8.05;;
3549;SDS011;45572;48.804;8.330;2022-11-25T11:39:00;17.38;;;9.50;;
3549;SDS011;45572;48.804;8.330;2022-11-25T11:41:42;19.00;;;8.50;;
3549;SDS011;45572;48.804;8.330;2022-11-25T11:44:17;15.68;;;10.40;;
3549;SDS011;45572;48.804;8.330;2022-11-25T11:46:57;19.50;;;10.65;;
3549;SDS011;45572;48.804;8.330;2022-11-25T11:49:41;20.73;;;10.10;;
3549;SDS011;45572;48.804;8.330;2022-11-25T11:52:23;18.60;;;10.65;;
3549;SDS011;45572;48.804;8.330;2022-11-25T11:55:00;22.55;;;12.63;;
3549;SDS011;45572;48.804;8.330;2022-11-25T11:57:38;16.90;;;10.70;;
3549;SDS011;45572;48.804;8.330;2022-11-25T12:00:15;14.57;;;10.00;;
3549;SDS011;45572;48.804;8.330;2022-11-25T12:02:50;15.43;;;10.13;;
3549;SDS011;45572;48.804;8.330;2022-11-25T12:05:23;13.70;;;9.10;;
3549;SDS011;45572;48.804;8.330;2022-11-25T12:07:57;11.50;;;7.35;;
3549;SDS011;45572;48.804;8.330;2022-11-25T12:10:35;13.20;;;6.63;;
3549;SDS011;45572;48.804;8.330;2022-11-25T12:13:08;9.30;;;5.30;;
3549;SDS011;45572;48.804;8.330;2022-11-25T12:15:44;5.93;;;4.13;;
3549;SDS011;45572;48.804;8.330;2022-11-25T12:18:17;7.32;;;3.92;;
3549;SDS011;45572;48.804;8.330;2022-11-25T12:20:56;8.75;;;3.63;;
3549;SDS011;45572;48.804;8.330;2022-11-25T12:23:31;13.05;;;3.63;;
3549;SDS011;45572;48.804;8.330;2022-11-25T12:26:11;6.75;;;3.55;;
3549;SDS011;45572;48.804;8.330;2022-11-25T12:28:44;10.35;;;4.28;;
3549;SDS011;45572;48.804;8.330;2022-11-25T12:31:19;8.48;;;4.47;;
3549;SDS011;45572;48.804;8.330;2022-11-25T12:33:55;11.60;;;3.85;;
3549;SDS011;45572;48.804;8.330;2022-11-25T12:36:30;6.38;;;4.15;;
3549;SDS011;45572;48.804;8.330;2022-11-25T12:39:02;7.97;;;3.45;;
3549;SDS011;45572;48.804;8.330;2022-11-25T12:41:36;6.28;;;3.05;;
3549;SDS011;45572;48.804;8.330;2022-11-25T12:44:10;7.82;;;2.95;;
3549;SDS011;45572;48.804;8.330;2022-11-25T12:46:43;9.38;;;3.08;;
3549;SDS011;45572;48.804;8.330;2022-11-25T12:49:14;8.80;;;3.58;;
3549;SDS011;45572;48.804;8.330;2022-11-25T12:51:50;5.38;;;3.08;;
3549;SDS011;45572;48.804;8.330;2022-11-25T12:54:39;10.50;;;3.35;;
3549;SDS011;45572;48.804;8.330;2022-11-25T12:57:25;6.38;;;3.80;;
3549;SDS011;45572;48.804;8.330;2022-11-25T13:00:16;11.27;;;3.40;;
3549;SDS011;45572;48.804;8.330;2022-11-25T13:06:05;6.50;;;3.60;;
3549;SDS011;45572;48.804;8.330;2022-11-25T13:08:49;8.85;;;3.50;;
3549;SDS011;45572;48.804;8.330;2022-11-25T13:11:27;5.93;;;2.83;;
3549;SDS011;45572;48.804;8.330;2022-11-25T13:14:17;6.45;;;3.10;;
3549;SDS011;45572;48.804;8.330;2022-11-25T13:16:52;6.13;;;3.95;;
3549;SDS011;45572;48.804;8.330;2022-11-25T13:19:23;8.13;;;2.63;;
3549;SDS011;45572;48.804;8.330;2022-11-25T13:21:58;13.00;;;2.88;;
3549;SDS011;45572;48.804;8.330;2022-11-25T13:24:29;5.50;;;2.40;;
3549;SDS011;45572;48.804;8.330;2022-11-25T13:26:59;4.57;;;2.40;;
3549;SDS011;45572;48.804;8.330;2022-11-25T13:32:26;9.10;;;2.83;;
3549;SDS011;45572;48.804;8.330;2022-11-25T13:37:54;7.75;;;2.75;;
3549;SDS011;45572;48.804;8.330;2022-11-25T13:40:30;5.07;;;2.80;;
3549;SDS011;45572;48.804;8.330;2022-11-25T13:43:02;6.72;;;3.75;;
3549;SDS011;45572;48.804;8.330;2022-11-25T13:45:31;8.13;;;3.80;;
3549;SDS011;45572;48.804;8.330;2022-11-25T13:48:09;7.00;;;2.70;;
3549;SDS011;45572;48.804;8.330;2022-11-25T13:50:41;7.43;;;2.80;;
3549;SDS011;45572;48.804;8.330;2022-11-25T13:53:30;8.55;;;3.45;;
3549;SDS011;45572;48.804;8.330;2022-11-25T13:56:10;9.55;;;3.47;;
3549;SDS011;45572;48.804;8.330;2022-11-25T13:58:42;6.72;;;2.70;;
3549;SDS011;45572;48.804;8.330;2022-11-25T14:01:54;7.50;;;3.45;;
3549;SDS011;45572;48.804;8.330;2022-11-25T14:04:44;11.85;;;3.22;;
3549;SDS011;45572;48.804;8.330;2022-11-25T14:07:24;9.70;;;3.72;;
3549;SDS011;45572;48.804;8.330;2022-11-25T14:10:02;6.05;;;2.60;;
3549;SDS011;45572;48.804;8.330;2022-11-25T14:12:46;8.80;;;3.13;;
3549;SDS011;45572;48.804;8.330;2022-11-25T14:15:26;9.55;;;3.15;;
3549;SDS011;45572;48.804;8.330;2022-11-25T14:18:10;12.95;;;3.42;;
3549;SDS011;45572;48.804;8.330;2022-11-25T14:21:12;12.18;;;4.15;;
3549;SDS011;45572;48.804;8.330;2022-11-25T14:23:54;9.30;;;4.15;;
3549;SDS011;45572;48.804;8.330;2022-11-25T14:26:37;11.25;;;4.43;;
3549;SDS011;45572;48.804;8.330;2022-11-25T14:29:22;14.95;;;5.05;;
3549;SDS011;45572;48.804;8.330;2022-11-25T14:31:56;15.43;;;6.40;;
3549;SDS011;45572;48.804;8.330;2022-11-25T14:34:29;23.63;;;19.92;;
3549;SDS011;45572;48.804;8.330;2022-11-25T14:37:03;16.17;;;11.60;;
3549;SDS011;45572;48.804;8.330;2022-11-25T14:39:38;12.80;;;5.55;;
3549;SDS011;45572;48.804;8.330;2022-11-25T14:42:13;9.52;;;3.20;;
3549;SDS011;45572;48.804;8.330;2022-11-25T14:44:44;5.80;;;2.80;;
3549;SDS011;45572;48.804;8.330;2022-11-25T14:47:14;7.78;;;3.10;;
3549;SDS011;45572;48.804;8.330;2022-11-25T14:49:47;8.73;;;3.33;;
3549;SDS011;45572;48.804;8.330;2022-11-25T14:52:38;18.90;;;11.18;;
3549;SDS011;45572;48.804;8.330;2022-11-25T14:55:09;8.52;;;4.55;;
3549;SDS011;45572;48.804;8.330;2022-11-25T14:57:38;9.93;;;3.60;;
3549;SDS011;45572;48.804;8.330;2022-11-25T15:00:12;11.13;;;4.45;;
3549;SDS011;45572;48.804;8.330;2022-11-25T15:02:50;6.82;;;2.63;;
3549;SDS011;45572;48.804;8.330;2022-11-25T15:05:21;11.60;;;6.13;;
3549;SDS011;45572;48.804;8.330;2022-11-25T15:07:56;10.80;;;6.47;;
3549;SDS011;45572;48.804;8.330;2022-11-25T15:10:27;10.05;;;4.65;;
3549;SDS011;45572;48.804;8.330;2022-11-25T15:12:58;7.05;;;3.40;;
3549;SDS011;45572;48.804;8.330;2022-11-25T15:15:27;14.13;;;5.93;;
3549;SDS011;45572;48.804;8.330;2022-11-25T15:17:57;8.05;;;4.45;;
3549;SDS011;45572;48.804;8.330;2022-11-25T15:20:30;16.25;;;6.45;;
3549;SDS011;45572;48.804;8.330;2022-11-25T15:23:03;9.07;;;3.88;;
3549;SDS011;45572;48.804;8.330;2022-11-25T15:25:31;7.60;;;3.70;;
3549;SDS011;45572;48.804;8.330;2022-11-25T15:27:58;17.45;;;4.80;;
3549;SDS011;45572;48.804;8.330;2022-11-25T15:30:28;23.20;;;12.52;;
3549;SDS011;45572;48.804;8.330;2022-11-25T15:32:55;13.23;;;7.05;;
3549;SDS011;45572;48.804;8.330;2022-11-25T15:35:25;14.25;;;5.28;;
3549;SDS011;45572;48.804;8.330;2022-11-25T15:37:53;6.18;;;4.90;;